aviador You're here:

HSSS Decoded Metar

KHARTOUM in SUDAN
Report Time2017-08-23 04:00:00
UTC Time2017-08-23 04:16:30
Flight Rules vfr VFR
Wind200° at 09 kt
W.Decomp.*RWY 18: 8.6 kt HW 2.8 kt RCW
W.Rank200° ranks 14
Current wind is above 200° avg. (8.6)
Visibility9999 m
Phenomena:N/A
Clouds:N/A
Expected CloudBase > 4,400 ft AGL from Temp-Dew spread
CeilingNone
Temp30°C (ISA +17)
Dew Point19°C (52% RH)
Heat Index31.4°C
QNH1007 hPa
Density Alt3,743 ft
Elevation1,247 ft
Report Wrong Elevation
Raw Report
HSSS 230400Z 20009KT CAVOK 30/19 Q1007 NOSIG=

Extra information for HSSS:More info

Metar Taf Metar & Taf Last 4 Metars F.Rules Stats Wind Profile Meteogram Temp Stats Airport Information Weather charts Add Link Nearby VenuesMetar ALERT Operation Metar Decoded Social comments